createdAt,value
2022-12-31T00:01:19.279Z,100423.25
2022-12-31T00:03:46.637Z,100426.09
2022-12-31T00:06:23.901Z,100418.78
2022-12-31T00:08:51.631Z,100417.16
2022-12-31T00:11:18.854Z,100416.34
2022-12-31T00:13:47.099Z,100406.81
2022-12-31T00:16:17.841Z,100408.44
2022-12-31T00:18:50.442Z,100417.56
2022-12-31T00:21:17.984Z,100421.00
2022-12-31T00:23:44.874Z,100431.56
2022-12-31T00:26:17.133Z,100424.44
2022-12-31T00:28:44.672Z,100436.44
2022-12-31T00:31:17.511Z,100433.00
2022-12-31T00:33:45.015Z,100434.59
2022-12-31T00:36:17.203Z,100432.19
2022-12-31T00:38:45.770Z,100435.84
2022-12-31T00:41:13.005Z,100436.66
2022-12-31T00:43:39.521Z,100434.00
2022-12-31T00:46:07.400Z,100436.66
2022-12-31T00:48:35.064Z,100450.00
2022-12-31T00:51:03.004Z,100442.50
2022-12-31T00:53:29.948Z,100449.63
2022-12-31T00:56:07.273Z,100438.47
2022-12-31T00:58:35.244Z,100436.03
2022-12-31T01:01:14.905Z,100441.91
2022-12-31T01:03:41.900Z,100434.00
2022-12-31T01:06:09.044Z,100433.19
2022-12-31T01:08:35.645Z,100435.22
2022-12-31T01:11:24.153Z,100444.94
2022-12-31T01:14:04.953Z,100437.44
2022-12-31T01:16:43.517Z,100434.19
2022-12-31T01:19:13.493Z,100424.88
2022-12-31T01:21:41.955Z,100436.44
2022-12-31T01:24:10.433Z,100433.97
2022-12-31T01:26:37.454Z,100441.09
2022-12-31T01:29:05.805Z,100435.81
2022-12-31T01:31:33.030Z,100435.19
2022-12-31T01:33:59.512Z,100438.84
2022-12-31T01:36:29.536Z,100439.66
2022-12-31T01:38:58.548Z,100446.97
2022-12-31T01:41:30.083Z,100434.19
2022-12-31T01:44:23.475Z,100445.53
2022-12-31T01:46:58.307Z,100449.38
2022-12-31T01:49:40.037Z,100446.13
2022-12-31T01:52:06.447Z,100441.69
2022-12-31T01:54:39.907Z,100441.88
2022-12-31T01:57:08.780Z,100448.16
2022-12-31T01:59:36.041Z,100457.06
2022-12-31T02:02:03.326Z,100461.53
2022-12-31T02:04:30.220Z,100463.38
2022-12-31T02:07:02.919Z,100462.56
2022-12-31T02:09:31.412Z,100474.09
2022-12-31T02:11:57.922Z,100453.00
2022-12-31T02:14:28.792Z,100454.03
2022-12-31T02:17:25.973Z,100432.13
2022-12-31T02:20:28.982Z,100422.63
2022-12-31T02:23:20.501Z,100432.31
2022-12-31T02:26:12.907Z,100431.72
2022-12-31T02:28:51.688Z,100425.66
2022-12-31T02:31:44.502Z,100427.47
2022-12-31T02:34:20.542Z,100407.38
2022-12-31T02:36:50.191Z,100405.56
2022-12-31T02:39:17.048Z,100401.31
2022-12-31T02:41:50.862Z,100403.13
2022-12-31T02:44:28.146Z,100404.97
2022-12-31T02:47:03.810Z,100398.88
2022-12-31T02:49:58.201Z,100412.25
2022-12-31T02:52:42.590Z,100435.34
2022-12-31T02:55:29.409Z,100432.09
2022-12-31T02:58:08.058Z,100445.25
2022-12-31T03:01:00.094Z,100448.91
2022-12-31T03:03:27.827Z,100452.56
2022-12-31T03:05:56.501Z,100460.47
2022-12-31T03:08:25.309Z,100469.38
2022-12-31T03:10:52.233Z,100464.09
2022-12-31T03:13:18.881Z,100472.00
2022-12-31T03:15:45.319Z,100461.66
2022-12-31T03:18:17.307Z,100470.59
2022-12-31T03:21:08.904Z,100459.25
2022-12-31T03:23:42.132Z,100466.53
2022-12-31T03:26:12.392Z,100470.97
2022-12-31T03:28:42.479Z,100468.34
2022-12-31T03:31:09.381Z,100479.06
2022-12-31T03:33:39.546Z,100476.63
2022-12-31T03:36:09.798Z,100476.00
2022-12-31T03:38:36.461Z,100477.84
2022-12-31T03:41:03.327Z,100478.84
2022-12-31T03:43:29.811Z,100471.97
2022-12-31T03:45:59.639Z,100470.34
2022-12-31T03:48:26.354Z,100466.88
2022-12-31T03:50:52.923Z,100447.84
2022-12-31T03:53:19.455Z,100447.03
2022-12-31T03:55:49.964Z,100462.84
2022-12-31T03:58:16.527Z,100461.41
2022-12-31T04:00:43.120Z,100460.59
2022-12-31T04:03:09.658Z,100472.16
2022-12-31T04:05:36.274Z,100465.22
2022-12-31T04:08:03.014Z,100458.34
2022-12-31T04:10:29.500Z,100460.34
2022-12-31T04:12:56.013Z,100449.22
2022-12-31T04:15:22.607Z,100449.22
2022-12-31T04:17:49.342Z,100431.81
2022-12-31T04:20:16.458Z,100445.97
2022-12-31T04:22:43.928Z,100430.38
2022-12-31T04:25:11.363Z,100426.13
2022-12-31T04:27:40.230Z,100415.59
2022-12-31T04:30:08.168Z,100414.78
2022-12-31T04:32:34.739Z,100410.50
2022-12-31T04:35:01.262Z,100428.50
2022-12-31T04:37:27.751Z,100426.09
2022-12-31T04:39:54.186Z,100435.81
2022-12-31T04:42:20.687Z,100447.97
2022-12-31T04:44:47.186Z,100435.00
2022-12-31T04:47:17.409Z,100437.63
2022-12-31T04:49:46.651Z,100437.63
2022-12-31T04:52:13.145Z,100458.69
2022-12-31T04:54:39.538Z,100451.78
2022-12-31T04:57:06.385Z,100442.91
2022-12-31T04:59:33.006Z,100448.97
2022-12-31T05:01:59.623Z,100442.91
2022-12-31T05:04:26.481Z,100447.97
2022-12-31T05:06:53.052Z,100427.91
2022-12-31T05:09:19.711Z,100427.91
2022-12-31T05:11:46.203Z,100447.97
2022-12-31T05:14:12.634Z,100455.66
2022-12-31T05:16:39.181Z,100444.31
2022-12-31T05:19:06.458Z,100444.31
2022-12-31T05:21:33.163Z,100442.47
2022-12-31T05:23:59.636Z,100453.00
2022-12-31T05:26:26.254Z,100437.22
2022-12-31T05:28:52.810Z,100446.75
2022-12-31T05:31:19.375Z,100446.56
2022-12-31T05:33:46.127Z,100461.34
2022-12-31T05:36:12.750Z,100449.00
2022-12-31T05:38:39.220Z,100463.59
2022-12-31T05:41:08.246Z,100466.03
2022-12-31T05:43:34.885Z,100476.38
2022-12-31T05:46:02.723Z,100462.59
2022-12-31T05:48:29.552Z,100457.16
2022-12-31T05:50:56.288Z,100463.03
2022-12-31T05:53:23.144Z,100451.50
2022-12-31T05:55:50.677Z,100444.19
2022-12-31T05:58:17.364Z,100450.09
2022-12-31T06:00:46.034Z,100453.16
2022-12-31T06:03:13.112Z,100450.09
2022-12-31T06:05:43.871Z,100441.19
2022-12-31T06:08:12.129Z,100454.16
2022-12-31T06:10:39.637Z,100452.97
2022-12-31T06:13:06.276Z,100443.84
2022-12-31T06:15:32.951Z,100445.47
2022-12-31T06:17:59.566Z,100454.59
2022-12-31T06:20:26.148Z,100454.38
2022-12-31T06:22:52.640Z,100456.84
2022-12-31T06:25:19.426Z,100460.47
2022-12-31T06:27:46.007Z,100459.66
2022-12-31T06:30:13.182Z,100458.66
2022-12-31T06:32:40.962Z,100455.03
2022-12-31T06:35:08.297Z,100457.44
2022-12-31T06:37:34.898Z,100475.72
2022-12-31T06:40:01.490Z,100471.03
2022-12-31T06:42:30.834Z,100475.31
2022-12-31T06:44:58.448Z,100487.25
2022-12-31T06:47:25.072Z,100482.78
2022-12-31T06:49:52.299Z,100483.84
2022-12-31T06:52:18.933Z,100478.97
2022-12-31T06:54:45.684Z,100482.44
2022-12-31T06:57:12.511Z,100482.03
2022-12-31T06:59:39.463Z,100487.72
2022-12-31T07:02:26.685Z,100483.66
2022-12-31T07:05:10.080Z,100474.97
2022-12-31T07:07:56.140Z,100474.38
2022-12-31T07:10:42.860Z,100471.13
2022-12-31T07:13:45.834Z,100466.66
2022-12-31T07:16:49.372Z,100469.72
2022-12-31T07:19:45.424Z,100467.28
2022-12-31T07:22:15.348Z,100461.81
2022-12-31T07:24:45.856Z,100463.63
2022-12-31T07:27:12.344Z,100469.31
2022-12-31T07:30:00.744Z,100467.69
2022-12-31T07:32:36.620Z,100466.25
2022-12-31T07:35:06.974Z,100467.06
2022-12-31T07:37:50.619Z,100470.72
2022-12-31T07:40:30.918Z,100481.09
2022-12-31T07:43:14.038Z,100481.69
2022-12-31T07:45:58.935Z,100489.81
2022-12-31T07:48:27.612Z,100479.03
2022-12-31T07:50:56.562Z,100491.84
2022-12-31T07:53:24.515Z,100493.44
2022-12-31T07:55:57.373Z,100496.31
2022-12-31T07:58:59.247Z,100507.06
2022-12-31T08:02:04.648Z,100508.47
2022-12-31T08:04:56.371Z,100497.28
2022-12-31T08:07:47.728Z,100493.22
2022-12-31T08:10:18.307Z,100508.66
2022-12-31T08:12:47.003Z,100511.72
2022-12-31T08:15:15.597Z,100510.28
2022-12-31T08:17:42.671Z,100489.59
2022-12-31T08:20:14.738Z,100525.31
2022-12-31T08:22:50.197Z,100510.50
2022-12-31T08:25:19.984Z,100509.47
2022-12-31T08:28:18.098Z,100508.47
2022-12-31T08:31:05.617Z,100513.75
2022-12-31T08:34:05.493Z,100521.88
2022-12-31T08:37:04.741Z,100528.97
2022-12-31T08:39:40.300Z,100542.19
2022-12-31T08:42:21.561Z,100569.19
2022-12-31T08:45:28.081Z,100562.28
2022-12-31T08:48:08.781Z,100567.56
2022-12-31T08:50:35.582Z,100574.47
2022-12-31T08:53:02.448Z,100587.69
2022-12-31T08:55:30.564Z,100586.25
2022-12-31T08:58:06.305Z,100598.66
2022-12-31T09:00:35.167Z,100601.28
2022-12-31T09:03:20.058Z,100618.97
2022-12-31T09:06:15.482Z,100623.63
2022-12-31T09:08:53.550Z,100616.50
2022-12-31T09:11:29.227Z,100616.31
2022-12-31T09:14:33.316Z,100634.38
2022-12-31T09:17:09.013Z,100623.81
2022-12-31T09:19:35.651Z,100623.41
2022-12-31T09:22:02.555Z,100630.72
2022-12-31T09:24:29.315Z,100616.13
2022-12-31T09:27:15.401Z,100647.19
2022-12-31T09:30:04.495Z,100638.88
2022-12-31T09:32:49.526Z,100638.25
2022-12-31T09:35:28.939Z,100633.94
2022-12-31T09:38:04.128Z,100632.16
2022-12-31T09:40:35.694Z,100627.88
2022-12-31T09:43:30.001Z,100619.75
2022-12-31T09:46:17.951Z,100634.16
2022-12-31T09:48:53.909Z,100637.81
2022-12-31T09:52:08.852Z,100639.63
2022-12-31T09:55:09.727Z,100645.31
2022-12-31T09:58:14.796Z,100645.94
2022-12-31T10:00:51.099Z,100643.66
2022-12-31T10:03:35.661Z,100643.25
2022-12-31T10:06:20.231Z,100656.47
2022-12-31T10:09:08.545Z,100643.66
2022-12-31T10:11:38.060Z,100654.63
2022-12-31T10:14:22.379Z,100643.47
2022-12-31T10:17:07.682Z,100639.78
2022-12-31T10:20:09.617Z,100640.97
2022-12-31T10:23:02.388Z,100639.72
2022-12-31T10:25:40.762Z,100649.47
2022-12-31T10:28:44.911Z,100635.84
2022-12-31T10:31:23.595Z,100643.75
2022-12-31T10:34:15.234Z,100649.00
2022-12-31T10:37:03.214Z,100659.97
2022-12-31T10:39:51.063Z,100646.94
2022-12-31T10:42:20.277Z,100662.03
2022-12-31T10:45:24.023Z,100652.44
2022-12-31T10:48:09.317Z,100642.47
2022-12-31T10:50:38.510Z,100653.06
2022-12-31T10:53:38.204Z,100654.09
2022-12-31T10:56:26.006Z,100653.47
2022-12-31T10:59:00.442Z,100666.09
2022-12-31T11:01:48.225Z,100668.53
2022-12-31T11:04:26.953Z,100647.78
2022-12-31T11:07:11.685Z,100648.59
2022-12-31T11:10:01.072Z,100652.84
2022-12-31T11:12:49.712Z,100649.22
2022-12-31T11:15:22.161Z,100652.25
2022-12-31T11:18:06.838Z,100668.31
2022-12-31T11:20:58.225Z,100655.47
2022-12-31T11:23:36.065Z,100652.41
2022-12-31T11:26:40.786Z,100645.94
2022-12-31T11:29:36.218Z,100631.28
2022-12-31T11:32:05.932Z,100648.41
2022-12-31T11:35:06.251Z,100657.16
2022-12-31T11:37:41.855Z,100631.50
2022-12-31T11:40:20.201Z,100660.19
2022-12-31T11:42:58.855Z,100662.03
2022-12-31T11:45:50.386Z,100671.75
2022-12-31T11:48:30.631Z,100669.72
2022-12-31T11:51:37.769Z,100658.34
2022-12-31T11:54:28.948Z,100672.16
2022-12-31T11:57:09.367Z,100661.78
2022-12-31T11:59:35.908Z,100661.91
2022-12-31T12:02:22.288Z,100660.25
2022-12-31T12:04:50.929Z,100649.84
2022-12-31T12:07:18.481Z,100653.91
2022-12-31T12:09:45.789Z,100647.97
2022-12-31T12:12:12.401Z,100647.53
2022-12-31T12:14:41.611Z,100651.81
2022-12-31T12:17:14.830Z,100638.56
2022-12-31T12:19:54.426Z,100641.41
2022-12-31T12:22:26.453Z,100646.94
2022-12-31T12:25:06.091Z,100646.56
2022-12-31T12:27:34.923Z,100638.59
2022-12-31T12:30:18.793Z,100631.09
2022-12-31T12:33:14.468Z,100643.09
2022-12-31T12:35:40.994Z,100628.25
2022-12-31T12:38:15.523Z,100637.38
2022-12-31T12:40:42.077Z,100637.38
2022-12-31T12:43:27.177Z,100623.91
2022-12-31T12:45:58.883Z,100642.44
2022-12-31T12:48:42.656Z,100641.63
2022-12-31T12:51:25.613Z,100637.56
2022-12-31T12:54:13.893Z,100638.19
2022-12-31T12:57:17.228Z,100639.81
2022-12-31T13:00:03.414Z,100628.78
2022-12-31T13:02:57.141Z,100662.41
2022-12-31T13:05:40.282Z,100658.53
2022-12-31T13:08:09.632Z,100664.19
2022-12-31T13:11:03.794Z,100666.84
2022-12-31T13:13:30.319Z,100664.19
2022-12-31T13:16:09.023Z,100673.75
2022-12-31T13:18:35.556Z,100666.47
2022-12-31T13:21:17.287Z,100672.19
2022-12-31T13:23:52.273Z,100677.66
2022-12-31T13:26:33.988Z,100675.03
2022-12-31T13:29:02.693Z,100673.63
2022-12-31T13:31:37.612Z,100683.03
2022-12-31T13:34:32.005Z,100678.97
2022-12-31T13:37:05.603Z,100682.81
2022-12-31T13:39:39.784Z,100683.88
2022-12-31T13:42:12.295Z,100691.00
2022-12-31T13:44:48.150Z,100689.56
2022-12-31T13:47:44.611Z,100670.25
2022-12-31T13:50:25.055Z,100687.16
2022-12-31T13:52:56.707Z,100681.47
2022-12-31T13:55:30.294Z,100691.03
2022-12-31T13:58:06.645Z,100684.69
2022-12-31T14:00:43.411Z,100676.75
2022-12-31T14:03:22.199Z,100675.72
2022-12-31T14:06:03.373Z,100680.41
2022-12-31T14:08:29.996Z,100682.03
2022-12-31T14:11:12.259Z,100674.88
2022-12-31T14:13:45.920Z,100672.25
2022-12-31T14:16:27.606Z,100674.09
2022-12-31T14:19:03.655Z,100669.81
2022-12-31T14:21:47.854Z,100664.53
2022-12-31T14:24:18.788Z,100682.25
2022-12-31T14:26:50.469Z,100668.19
2022-12-31T14:29:35.553Z,100674.88
2022-12-31T14:32:18.446Z,100702.38
2022-12-31T14:35:06.767Z,100703.41
2022-12-31T14:37:38.716Z,100720.72
2022-12-31T14:40:23.647Z,100716.06
2022-12-31T14:43:24.311Z,100705.31
2022-12-31T14:46:12.222Z,100719.75
2022-12-31T14:49:12.970Z,100715.28
2022-12-31T14:51:47.203Z,100721.81
2022-12-31T14:54:53.413Z,100723.03
2022-12-31T15:00:29.244Z,100726.72
2022-12-31T15:03:07.167Z,100733.63
2022-12-31T15:05:37.085Z,100736.47
2022-12-31T15:08:14.390Z,100735.66
2022-12-31T15:11:12.269Z,100748.31
2022-12-31T15:14:16.491Z,100751.34
2022-12-31T15:16:58.275Z,100736.69
2022-12-31T15:19:49.602Z,100739.56
2022-12-31T15:22:25.453Z,100724.50
2022-12-31T15:24:52.196Z,100718.41
2022-12-31T15:27:31.506Z,100717.59
2022-12-31T15:29:58.092Z,100721.06
2022-12-31T15:32:40.516Z,100719.84
2022-12-31T15:35:22.043Z,100715.53
2022-12-31T15:38:11.040Z,100696.78
2022-12-31T15:40:50.485Z,100696.59
2022-12-31T15:43:27.834Z,100691.06
2022-12-31T15:45:56.663Z,100679.50
2022-12-31T15:48:42.077Z,100688.00
2022-12-31T15:51:17.665Z,100699.78
2022-12-31T15:53:52.706Z,100707.16
2022-12-31T15:56:28.238Z,100707.16
2022-12-31T15:58:59.118Z,100690.63
2022-12-31T16:01:31.345Z,100707.31
2022-12-31T16:04:01.887Z,100706.28
2022-12-31T16:06:30.478Z,100713.00
2022-12-31T16:08:57.731Z,100700.56
2022-12-31T16:11:25.157Z,100689.81
2022-12-31T16:13:55.748Z,100705.22
2022-12-31T16:16:31.473Z,100705.22
2022-12-31T16:18:59.020Z,100712.38
2022-12-31T16:21:34.735Z,100703.41
2022-12-31T16:24:06.860Z,100700.97
2022-12-31T16:26:45.636Z,100680.03
2022-12-31T16:29:15.202Z,100700.97
2022-12-31T16:31:44.595Z,100674.50
2022-12-31T16:34:17.618Z,100693.84
2022-12-31T16:37:01.459Z,100687.72
2022-12-31T16:39:51.207Z,100688.78
2022-12-31T16:42:21.011Z,100687.97
2022-12-31T16:44:48.844Z,100684.50
2022-12-31T16:47:21.405Z,100682.84
2022-12-31T16:49:57.129Z,100673.09
2022-12-31T16:52:23.900Z,100681.03
2022-12-31T16:54:51.265Z,100681.63
2022-12-31T16:57:22.866Z,100682.84
2022-12-31T16:59:54.806Z,100691.59
2022-12-31T17:02:35.323Z,100686.13
2022-12-31T17:05:02.566Z,100685.09
2022-12-31T17:07:31.635Z,100669.22
2022-12-31T17:10:07.218Z,100677.78
2022-12-31T17:12:53.016Z,100671.69
2022-12-31T17:15:29.277Z,100696.16
2022-12-31T17:18:01.205Z,100686.78
2022-12-31T17:20:31.055Z,100684.13
2022-12-31T17:23:05.428Z,100674.59
2022-12-31T17:25:35.829Z,100667.47
2022-12-31T17:28:07.366Z,100679.66
2022-12-31T17:30:34.685Z,100674.38
2022-12-31T17:33:14.429Z,100673.75
2022-12-31T17:35:43.365Z,100668.91
2022-12-31T17:38:22.356Z,100682.53
2022-12-31T17:40:51.689Z,100666.25
2022-12-31T17:43:23.678Z,100653.03
2022-12-31T17:45:54.638Z,100659.13
2022-12-31T17:48:24.378Z,100672.94
2022-12-31T17:51:01.216Z,100670.50
2022-12-31T17:53:27.874Z,100680.28
2022-12-31T17:56:00.494Z,100686.41
2022-12-31T17:58:34.720Z,100679.50
2022-12-31T18:01:05.121Z,100679.66
2022-12-31T18:03:32.018Z,100691.06
2022-12-31T18:05:58.614Z,100679.66
2022-12-31T18:08:25.153Z,100685.56
2022-12-31T18:10:53.547Z,100689.41
2022-12-31T18:13:23.185Z,100686.16
2022-12-31T18:15:50.108Z,100687.34
2022-12-31T18:18:24.376Z,100686.53
2022-12-31T18:20:55.258Z,100682.84
2022-12-31T18:23:46.242Z,100687.56
2022-12-31T18:26:18.436Z,100674.53
2022-12-31T18:28:45.902Z,100671.69
2022-12-31T18:31:18.472Z,100685.13
2022-12-31T18:33:46.921Z,100671.69
2022-12-31T18:36:15.553Z,100680.22
2022-12-31T18:38:42.601Z,100684.50
2022-12-31T18:41:21.264Z,100683.66
2022-12-31T18:43:48.702Z,100688.78
2022-12-31T18:46:18.089Z,100686.69
2022-12-31T18:48:45.238Z,100683.06
2022-12-31T18:51:17.511Z,100676.31
2022-12-31T18:53:45.125Z,100681.78
2022-12-31T18:56:14.517Z,100693.00
2022-12-31T18:58:41.656Z,100685.88
2022-12-31T19:01:35.227Z,100681.78
2022-12-31T19:04:26.597Z,100701.56
2022-12-31T19:06:54.174Z,100693.63
2022-12-31T19:09:43.909Z,100701.75
2022-12-31T19:12:09.899Z,100707.66
2022-12-31T19:14:36.511Z,100714.19
2022-12-31T19:19:28.439Z,100711.50
2022-12-31T19:21:55.017Z,100720.44
2022-12-31T19:24:23.938Z,100712.16
2022-12-31T19:26:50.875Z,100722.94
2022-12-31T19:29:20.006Z,100709.28
2022-12-31T19:31:47.515Z,100720.25
2022-12-31T19:34:14.468Z,100703.16
2022-12-31T19:36:44.238Z,100697.28
2022-12-31T19:39:17.308Z,100699.78
2022-12-31T19:41:51.454Z,100709.16
2022-12-31T19:44:22.999Z,100696.16
2022-12-31T19:46:49.573Z,100687.38
2022-12-31T19:49:16.539Z,100707.16
2022-12-31T19:51:44.800Z,100708.75
2022-12-31T19:54:13.654Z,100706.34
2022-12-31T19:56:41.028Z,100717.34
2022-12-31T19:59:09.600Z,100726.47
2022-12-31T20:01:36.183Z,100730.31
2022-12-31T20:04:02.807Z,100726.88
2022-12-31T20:06:29.262Z,100724.22
2022-12-31T20:08:55.834Z,100719.75
2022-12-31T20:11:24.523Z,100736.00
2022-12-31T20:13:54.927Z,100727.03
2022-12-31T20:16:24.672Z,100731.75
2022-12-31T20:18:51.254Z,100726.66
2022-12-31T20:21:21.163Z,100747.41
2022-12-31T20:23:49.712Z,100734.78
2022-12-31T20:26:16.854Z,100755.31
2022-12-31T20:28:44.449Z,100749.00
2022-12-31T20:31:16.857Z,100761.22
2022-12-31T20:33:44.619Z,100735.19
2022-12-31T20:36:14.995Z,100726.25
2022-12-31T20:38:41.870Z,100741.69
2022-12-31T20:41:14.486Z,100730.50
2022-12-31T20:43:41.492Z,100728.25
2022-12-31T20:46:21.942Z,100743.13
2022-12-31T20:48:50.482Z,100742.91
2022-12-31T20:51:18.166Z,100740.88
2022-12-31T20:53:57.248Z,100752.03
2022-12-31T20:56:25.978Z,100754.50
2022-12-31T20:58:52.602Z,100746.72
2022-12-31T21:01:19.763Z,100748.34
2022-12-31T21:04:06.949Z,100744.88
2022-12-31T21:06:35.191Z,100749.38
2022-12-31T21:09:03.942Z,100748.34
2022-12-31T21:11:49.536Z,100750.78
2022-12-31T21:14:17.230Z,100759.53
2022-12-31T21:16:43.859Z,100767.66
2022-12-31T21:19:10.611Z,100754.63
2022-12-31T21:21:37.584Z,100759.28
2022-12-31T21:24:04.625Z,100759.72
2022-12-31T21:26:31.305Z,100773.19
2022-12-31T21:28:57.968Z,100770.31
2022-12-31T21:31:24.648Z,100780.69
2022-12-31T21:33:51.322Z,100782.31
2022-12-31T21:36:18.148Z,100789.88
2022-12-31T21:38:45.309Z,100791.06
2022-12-31T21:41:51.237Z,100786.16
2022-12-31T21:44:28.411Z,100772.94
2022-12-31T21:47:35.633Z,100804.69
2022-12-31T21:50:04.251Z,100807.34
2022-12-31T21:52:33.419Z,100804.31
2022-12-31T21:55:20.442Z,100796.16
2022-12-31T21:58:24.796Z,100795.34
2022-12-31T22:00:55.168Z,100794.75
2022-12-31T22:03:24.491Z,100799.63
2022-12-31T22:05:52.769Z,100802.47
2022-12-31T22:08:20.802Z,100806.16
2022-12-31T22:10:52.492Z,100810.41
2022-12-31T22:13:19.802Z,100801.03
2022-12-31T22:15:49.550Z,100779.25
2022-12-31T22:18:16.781Z,100798.38
2022-12-31T22:20:43.767Z,100798.19
2022-12-31T22:23:10.585Z,100786.38
2022-12-31T22:25:38.448Z,100793.72
2022-12-31T22:28:37.624Z,100812.25
2022-12-31T22:30:53.122Z,100808.19
2022-12-31T22:33:19.847Z,100807.19
2022-12-31T22:36:04.576Z,100795.16
2022-12-31T22:38:31.562Z,100808.19
2022-12-31T22:41:18.877Z,100809.22
2022-12-31T22:43:48.334Z,100810.03
2022-12-31T22:46:26.549Z,100795.34
2022-12-31T22:48:56.456Z,100801.44
2022-12-31T22:51:22.984Z,100819.38
2022-12-31T22:53:49.582Z,100815.28
2022-12-31T22:56:18.934Z,100816.31
2022-12-31T22:58:46.180Z,100817.13
2022-12-31T23:01:22.010Z,100835.25
2022-12-31T23:03:50.564Z,100822.59
2022-12-31T23:06:18.281Z,100829.09
2022-12-31T23:09:05.135Z,100825.88
2022-12-31T23:11:33.560Z,100830.78
2022-12-31T23:14:18.623Z,100838.50
2022-12-31T23:17:30.126Z,100830.78
2022-12-31T23:20:08.941Z,100841.56
2022-12-31T23:22:53.877Z,100840.75
2022-12-31T23:25:20.488Z,100843.00
2022-12-31T23:27:47.043Z,100856.47
2022-12-31T23:30:13.645Z,100860.53
2022-12-31T23:32:40.116Z,100852.59
2022-12-31T23:35:09.968Z,100863.78
2022-12-31T23:37:36.902Z,100859.09
2022-12-31T23:40:03.916Z,100860.72
2022-12-31T23:42:30.628Z,100869.69
2022-12-31T23:44:57.645Z,100852.13
2022-12-31T23:47:24.199Z,100861.50
2022-12-31T23:49:50.869Z,100871.47
2022-12-31T23:52:17.442Z,100870.09
2022-12-31T23:54:44.635Z,100874.75
2022-12-31T23:57:11.332Z,100867.38
2022-12-31T23:59:38.762Z,100869.22
